createdAt,value
2018-11-23T00:00:31.129Z,101540.77
2018-11-23T00:03:00.688Z,101544.69
2018-11-23T00:05:29.602Z,101545.15
2018-11-23T00:07:59.209Z,101545.02
2018-11-23T00:10:29.467Z,101540.57
2018-11-23T00:12:58.427Z,101545.59
2018-11-23T00:15:27.380Z,101545.13
2018-11-23T00:17:56.354Z,101551.02
2018-11-23T00:20:26.663Z,101551.84
2018-11-23T00:22:55.547Z,101549.94
2018-11-23T00:25:25.324Z,101551.41
2018-11-23T00:27:54.801Z,101553.73
2018-11-23T00:30:24.882Z,101557.95
2018-11-23T00:32:54.156Z,101555.41
2018-11-23T00:35:24.305Z,101553.23
2018-11-23T00:37:53.806Z,101553.16
2018-11-23T00:40:26.798Z,101556.37
2018-11-23T00:42:56.071Z,101556.77
2018-11-23T00:45:25.040Z,101561.38
2018-11-23T00:47:54.797Z,101560.38
2018-11-23T00:50:24.506Z,101566.89
2018-11-23T00:52:54.296Z,101565.55
2018-11-23T00:55:24.021Z,101570.62
2018-11-23T00:57:52.953Z,101568.29
2018-11-23T01:00:29.410Z,101563.02
2018-11-23T01:02:58.987Z,101566.50
2018-11-23T01:05:27.892Z,101565.97
2018-11-23T01:07:56.800Z,101562.02
2018-11-23T01:10:26.906Z,101561.97
2018-11-23T01:12:56.739Z,101566.75
2018-11-23T01:15:25.645Z,101569.42
2018-11-23T01:17:54.555Z,101572.50
2018-11-23T01:20:24.699Z,101569.58
2018-11-23T01:22:54.321Z,101567.50
2018-11-23T01:25:24.234Z,101567.44
2018-11-23T01:27:53.854Z,101568.30
2018-11-23T01:30:32.681Z,101567.09
2018-11-23T01:33:01.654Z,101563.89
2018-11-23T01:35:30.510Z,101566.56
2018-11-23T01:37:59.450Z,101563.37
2018-11-23T01:40:29.769Z,101565.17
2018-11-23T01:42:59.030Z,101565.36
2018-11-23T01:45:27.949Z,101562.27
2018-11-23T01:47:56.851Z,101566.44
2018-11-23T01:50:27.121Z,101565.98
2018-11-23T01:52:56.200Z,101555.50
2018-11-23T01:55:25.891Z,101559.28
2018-11-23T01:57:54.839Z,101556.33
2018-11-23T02:00:24.887Z,101561.16
2018-11-23T02:02:54.587Z,101563.30
2018-11-23T02:05:23.547Z,101561.50
2018-11-23T02:07:52.469Z,101562.34
2018-11-23T02:10:21.438Z,101565.17
2018-11-23T02:12:50.354Z,101559.48
2018-11-23T02:15:20.589Z,101557.73
2018-11-23T02:17:50.092Z,101554.60
2018-11-23T02:20:19.803Z,101551.00
2018-11-23T02:22:48.732Z,101552.80
2018-11-23T02:25:17.613Z,101546.59
2018-11-23T02:27:46.562Z,101547.64
2018-11-23T02:30:25.492Z,101546.46
2018-11-23T02:32:54.715Z,101549.38
2018-11-23T02:35:23.645Z,101543.57
2018-11-23T02:37:52.538Z,101546.05
2018-11-23T02:40:21.865Z,101547.45
2018-11-23T02:42:50.799Z,101551.27
2018-11-23T02:45:21.096Z,101546.17
2018-11-23T02:47:50.299Z,101548.72
2018-11-23T02:50:19.314Z,101552.44
2018-11-23T02:52:48.605Z,101541.58
2018-11-23T02:55:18.423Z,101546.17
2018-11-23T02:57:47.349Z,101544.20
2018-11-23T03:00:18.270Z,101540.43
2018-11-23T03:02:47.323Z,101534.56
2018-11-23T03:05:17.636Z,101535.89
2018-11-23T03:07:46.564Z,101523.69
2018-11-23T03:10:16.218Z,101519.40
2018-11-23T03:12:45.987Z,101518.33
2018-11-23T03:15:16.623Z,101514.80
2018-11-23T03:17:46.191Z,101515.49
2018-11-23T03:20:16.427Z,101525.95
2018-11-23T03:22:45.349Z,101529.09
2018-11-23T03:25:14.727Z,101519.85
2018-11-23T03:27:43.657Z,101523.00
2018-11-23T03:30:20.404Z,101522.35
2018-11-23T03:32:50.177Z,101526.95
2018-11-23T03:35:19.710Z,101531.60
2018-11-23T03:37:48.639Z,101530.67
2018-11-23T03:40:17.514Z,101533.55
2018-11-23T03:42:46.487Z,101528.09
2018-11-23T03:45:15.867Z,101528.80
2018-11-23T03:47:45.093Z,101519.27
2018-11-23T03:50:14.865Z,101525.42
2018-11-23T03:52:44.186Z,101524.39
2018-11-23T03:55:13.150Z,101523.34
2018-11-23T03:57:42.061Z,101522.52
2018-11-23T04:00:19.460Z,101522.52
2018-11-23T04:02:48.790Z,101518.63
2018-11-23T04:05:18.063Z,101520.46
2018-11-23T04:07:47.347Z,101516.52
2018-11-23T04:10:16.916Z,101521.45
2018-11-23T04:12:46.153Z,101521.80
2018-11-23T04:15:15.499Z,101522.52
2018-11-23T04:17:44.439Z,101524.38
2018-11-23T04:20:14.588Z,101525.94
2018-11-23T04:22:43.776Z,101523.03
2018-11-23T04:25:13.323Z,101518.47
2018-11-23T04:27:42.695Z,101527.23
2018-11-23T04:30:13.738Z,101523.62
2018-11-23T04:32:42.926Z,101520.37
2018-11-23T04:35:13.359Z,101520.96
2018-11-23T04:37:42.942Z,101518.58
2018-11-23T04:40:12.680Z,101511.55
2018-11-23T04:42:41.846Z,101521.72
2018-11-23T04:45:11.287Z,101516.31
2018-11-23T04:47:40.304Z,101512.88
2018-11-23T04:50:10.999Z,101510.56
2018-11-23T04:52:39.921Z,101517.52
2018-11-23T04:55:09.482Z,101512.41
2018-11-23T04:57:38.419Z,101514.55
2018-11-23T05:00:09.559Z,101515.78
2018-11-23T05:02:38.469Z,101519.79
2018-11-23T05:05:08.774Z,101520.66
2018-11-23T05:07:37.752Z,101524.60
2018-11-23T05:10:08.766Z,101519.32
2018-11-23T05:12:37.760Z,101520.66
2018-11-23T05:15:07.439Z,101513.91
2018-11-23T05:17:36.521Z,101527.41
2018-11-23T05:20:06.170Z,101532.88
2018-11-23T05:22:35.253Z,101524.73
2018-11-23T05:25:04.225Z,101524.34
2018-11-23T05:27:33.137Z,101524.62
2018-11-23T05:30:02.191Z,101529.16
2018-11-23T05:32:31.096Z,101526.83
2018-11-23T05:35:00.030Z,101527.81
2018-11-23T05:37:28.933Z,101522.47
2018-11-23T05:39:57.852Z,101526.67
2018-11-23T05:42:26.818Z,101518.88
2018-11-23T05:44:55.822Z,101515.67
2018-11-23T05:47:24.740Z,101505.77
2018-11-23T05:49:53.664Z,101492.62
2018-11-23T05:52:22.639Z,101497.49
2018-11-23T05:54:51.587Z,101483.73
2018-11-23T05:57:20.511Z,101485.64
2018-11-23T05:59:49.447Z,101481.64
2018-11-23T06:02:18.389Z,101480.59
2018-11-23T06:04:47.327Z,101479.50
2018-11-23T06:07:16.225Z,101479.18
2018-11-23T06:09:45.170Z,101474.48
2018-11-23T06:12:14.118Z,101472.80
2018-11-23T06:14:43.045Z,101465.14
2018-11-23T06:17:11.986Z,101456.98
2018-11-23T06:19:40.866Z,101457.66
2018-11-23T06:22:09.799Z,101456.55
2018-11-23T06:24:38.776Z,101456.41
2018-11-23T06:27:07.699Z,101452.20
2018-11-23T06:29:36.650Z,101450.66
2018-11-23T06:32:43.371Z,101457.92
2018-11-23T06:35:12.275Z,101464.23
2018-11-23T06:37:41.179Z,101456.86
2018-11-23T06:40:10.735Z,101449.80
2018-11-23T06:42:42.301Z,101449.03
2018-11-23T06:45:09.374Z,101453.77
2018-11-23T06:47:38.332Z,101449.52
2018-11-23T06:50:13.968Z,101454.61
2018-11-23T06:52:42.940Z,101458.22
2018-11-23T06:55:12.483Z,101460.19
2018-11-23T06:57:41.743Z,101448.00
2018-11-23T07:00:14.977Z,101453.75
2018-11-23T07:02:44.783Z,101448.38
2018-11-23T07:05:14.099Z,101469.78
2018-11-23T07:07:43.035Z,101479.67
2018-11-23T07:10:12.046Z,101472.75
2018-11-23T07:12:40.979Z,101486.20
2018-11-23T07:15:11.519Z,101488.20
2018-11-23T07:17:41.141Z,101475.89
2018-11-23T07:20:12.204Z,101483.58
2018-11-23T07:22:41.529Z,101482.16
2018-11-23T07:25:11.975Z,101487.27
2018-11-23T07:27:41.354Z,101485.72
2018-11-23T07:30:18.771Z,101492.97
2018-11-23T07:32:47.690Z,101492.62
2018-11-23T07:35:16.861Z,101489.30
2018-11-23T07:37:45.765Z,101491.04
2018-11-23T07:40:52.110Z,101492.09
2018-11-23T07:43:21.117Z,101499.55
2018-11-23T07:45:50.155Z,101488.00
2018-11-23T07:48:19.055Z,101478.85
2018-11-23T07:50:47.976Z,101471.89
2018-11-23T07:53:16.874Z,101467.87
2018-11-23T07:55:45.826Z,101462.51
2018-11-23T07:58:14.724Z,101491.06
2018-11-23T08:00:43.727Z,101510.12
2018-11-23T08:03:12.616Z,101486.83
2018-11-23T08:05:41.607Z,101495.79
2018-11-23T08:08:10.584Z,101495.81
2018-11-23T08:10:38.693Z,101488.98
2018-11-23T08:13:07.845Z,101507.44
2018-11-23T08:15:36.731Z,101485.45
2018-11-23T08:18:05.717Z,101488.45
2018-11-23T08:20:34.671Z,101480.20
2018-11-23T08:23:03.662Z,101488.77
2018-11-23T08:25:32.664Z,101475.52
2018-11-23T08:28:01.592Z,101478.83
2018-11-23T08:30:30.843Z,101481.11
2018-11-23T08:33:00.037Z,101474.20
2018-11-23T08:35:28.963Z,101475.80
2018-11-23T08:37:57.888Z,101478.24
2018-11-23T08:40:27.546Z,101467.67
2018-11-23T08:42:57.090Z,101463.13
2018-11-23T08:45:26.969Z,101451.97
2018-11-23T08:47:55.968Z,101442.87
2018-11-23T08:50:31.292Z,101435.08
2018-11-23T08:53:00.261Z,101446.39
2018-11-23T08:55:29.239Z,101444.40
2018-11-23T08:57:58.156Z,101455.33
2018-11-23T09:00:28.222Z,101454.56
2018-11-23T09:02:59.027Z,101453.50
2018-11-23T09:05:27.894Z,101449.17
2018-11-23T09:07:57.300Z,101453.41
2018-11-23T09:10:30.555Z,101452.08
2018-11-23T09:13:01.281Z,101452.62
2018-11-23T09:15:30.308Z,101450.75
2018-11-23T09:17:59.287Z,101460.58
2018-11-23T09:20:28.169Z,101460.16
2018-11-23T09:22:57.093Z,101468.16
2018-11-23T09:25:25.991Z,101464.61
2018-11-23T09:27:54.904Z,101458.28
2018-11-23T09:30:25.212Z,101464.44
2018-11-23T09:32:54.710Z,101460.07
2018-11-23T09:35:23.741Z,101450.59
2018-11-23T09:37:52.896Z,101454.59
2018-11-23T09:40:23.149Z,101457.05
2018-11-23T09:42:52.308Z,101462.62
2018-11-23T09:45:22.633Z,101467.13
2018-11-23T09:47:52.876Z,101477.81
2018-11-23T09:50:23.136Z,101469.09
2018-11-23T09:52:53.245Z,101467.37
2018-11-23T09:55:22.740Z,101464.92
2018-11-23T09:57:51.763Z,101455.48
2018-11-23T10:00:27.885Z,101445.38
2018-11-23T10:02:57.565Z,101444.01
2018-11-23T10:05:27.318Z,101435.16
2018-11-23T10:07:57.860Z,101441.72
2018-11-23T10:10:27.317Z,101445.14
2018-11-23T10:12:56.254Z,101440.85
2018-11-23T10:15:26.259Z,101439.63
2018-11-23T10:17:55.404Z,101437.13
2018-11-23T10:20:28.613Z,101433.34
2018-11-23T10:22:57.764Z,101428.67
2018-11-23T10:25:31.242Z,101429.80
2018-11-23T10:28:00.233Z,101424.20
2018-11-23T10:30:33.197Z,101421.56
2018-11-23T10:33:03.437Z,101403.28
2018-11-23T10:35:32.442Z,101404.13
2018-11-23T10:38:02.683Z,101402.97
2018-11-23T10:40:33.181Z,101400.94
2018-11-23T10:43:02.104Z,101396.53
2018-11-23T10:45:32.253Z,101401.52
2018-11-23T10:48:02.218Z,101395.55
2018-11-23T10:50:35.868Z,101391.41
2018-11-23T10:53:05.233Z,101389.72
2018-11-23T10:55:35.201Z,101397.11
2018-11-23T10:58:04.152Z,101391.66
2018-11-23T11:00:50.944Z,101391.39
2018-11-23T11:03:39.141Z,101377.45
2018-11-23T11:06:30.583Z,101373.59
2018-11-23T11:08:59.440Z,101374.92
2018-11-23T11:11:28.351Z,101377.62
2018-11-23T11:13:58.019Z,101375.16
2018-11-23T11:16:27.252Z,101369.20
2018-11-23T11:18:55.868Z,101365.42
2018-11-23T11:21:24.814Z,101363.02
2018-11-23T11:23:53.732Z,101351.83
2018-11-23T11:26:22.773Z,101353.67
2018-11-23T11:28:51.694Z,101352.84
2018-11-23T11:31:20.664Z,101348.15
2018-11-23T11:33:50.988Z,101339.38
2018-11-23T11:36:20.811Z,101330.91
2018-11-23T11:38:49.671Z,101332.89
2018-11-23T11:41:18.588Z,101327.59
2018-11-23T11:43:47.552Z,101323.89
2018-11-23T11:46:16.486Z,101314.58
2018-11-23T11:48:45.385Z,101310.68
2018-11-23T11:51:14.779Z,101300.92
2018-11-23T11:53:43.198Z,101309.91
2018-11-23T11:56:12.142Z,101315.95
2018-11-23T11:58:41.026Z,101312.93
2018-11-23T12:01:10.022Z,101314.95
2018-11-23T12:03:39.023Z,101320.98
2018-11-23T12:06:08.042Z,101328.97
2018-11-23T12:08:36.966Z,101337.09
2018-11-23T12:11:06.559Z,101329.70
2018-11-23T12:13:35.449Z,101320.63
2018-11-23T12:16:04.449Z,101318.66
2018-11-23T12:18:33.384Z,101317.67
2018-11-23T12:21:02.303Z,101321.60
2018-11-23T12:23:31.225Z,101315.08
2018-11-23T12:26:00.117Z,101310.53
2018-11-23T12:28:29.060Z,101308.07
2018-11-23T12:30:57.959Z,101298.59
2018-11-23T12:33:26.872Z,101298.10
2018-11-23T12:35:55.855Z,101292.78
2018-11-23T12:38:24.818Z,101287.41
2018-11-23T12:40:53.749Z,101288.23
2018-11-23T12:43:22.733Z,101286.64
2018-11-23T12:45:51.578Z,101276.58
2018-11-23T12:48:21.119Z,101275.22
2018-11-23T12:50:51.494Z,101271.27
2018-11-23T12:53:20.402Z,101266.83
2018-11-23T12:55:49.361Z,101264.27
2018-11-23T12:58:18.290Z,101261.80
2018-11-23T13:00:47.275Z,101261.92
2018-11-23T13:03:16.268Z,101258.48
2018-11-23T13:05:45.155Z,101273.11
2018-11-23T13:08:14.097Z,101263.91
2018-11-23T13:10:43.133Z,101257.35
2018-11-23T13:13:11.997Z,101258.84
2018-11-23T13:15:40.946Z,101258.97
2018-11-23T13:18:10.144Z,101262.67
2018-11-23T13:20:39.006Z,101253.30
2018-11-23T13:23:08.095Z,101256.77
2018-11-23T13:25:37.014Z,101252.95
2018-11-23T13:28:06.349Z,101254.27
2018-11-23T13:30:36.298Z,101243.22
2018-11-23T13:33:05.269Z,101243.48
2018-11-23T13:35:34.215Z,101234.14
2018-11-23T13:38:03.110Z,101231.92
2018-11-23T13:40:31.998Z,101232.16
2018-11-23T13:43:01.470Z,101227.14
2018-11-23T13:45:31.914Z,101223.20
2018-11-23T13:48:00.847Z,101224.39
2018-11-23T13:50:29.866Z,101222.94
2018-11-23T13:53:00.321Z,101231.02
2018-11-23T13:55:29.223Z,101229.91
2018-11-23T13:57:58.137Z,101223.52
2018-11-23T14:00:28.469Z,101220.91
2018-11-23T14:02:57.390Z,101222.28
2018-11-23T14:05:27.837Z,101214.41
2018-11-23T14:07:58.373Z,101218.55
2018-11-23T14:10:28.119Z,101217.83
2018-11-23T14:12:57.029Z,101213.28
2018-11-23T14:15:27.273Z,101211.20
2018-11-23T14:17:57.591Z,101212.70
2018-11-23T14:20:27.205Z,101212.34
2018-11-23T14:22:56.123Z,101213.80
2018-11-23T14:25:26.454Z,101213.28
2018-11-23T14:27:55.854Z,101212.77
2018-11-23T14:30:29.175Z,101210.03
2018-11-23T14:32:58.387Z,101210.23
2018-11-23T14:35:28.742Z,101209.12
2018-11-23T14:37:58.573Z,101208.16
2018-11-23T14:40:27.490Z,101207.04
2018-11-23T14:42:56.866Z,101207.53
2018-11-23T14:45:35.851Z,101207.81
2018-11-23T14:48:08.793Z,101213.08
2018-11-23T14:50:51.159Z,101207.91
2018-11-23T14:53:20.081Z,101206.78
2018-11-23T14:55:49.031Z,101204.00
2018-11-23T14:58:18.037Z,101202.50
2018-11-23T15:00:47.094Z,101198.94
2018-11-23T15:03:16.113Z,101198.80
2018-11-23T15:05:45.133Z,101202.36
2018-11-23T15:08:14.106Z,101206.01
2018-11-23T15:10:43.066Z,101196.11
2018-11-23T15:13:11.974Z,101200.98
2018-11-23T15:15:41.748Z,101194.22
2018-11-23T15:18:11.094Z,101187.44
2018-11-23T15:20:44.572Z,101190.14
2018-11-23T15:23:14.838Z,101181.39
2018-11-23T15:25:43.718Z,101182.66
2018-11-23T15:28:13.226Z,101187.52
2018-11-23T15:30:42.977Z,101182.13
2018-11-23T15:33:13.405Z,101189.63
2018-11-23T15:35:43.063Z,101190.91
2018-11-23T15:38:14.121Z,101191.81
2018-11-23T15:40:43.161Z,101187.10
2018-11-23T15:43:13.238Z,101185.35
2018-11-23T15:45:46.936Z,101190.31
2018-11-23T15:48:17.239Z,101181.71
2018-11-23T15:50:46.291Z,101187.18
2018-11-23T15:53:16.252Z,101184.67
2018-11-23T15:55:45.202Z,101183.54
2018-11-23T15:58:17.450Z,101192.22
2018-11-23T16:00:48.854Z,101191.14
2018-11-23T16:03:24.295Z,101192.18
2018-11-23T16:05:50.531Z,101188.90
2018-11-23T16:08:20.355Z,101186.52
2018-11-23T16:10:49.460Z,101185.86
2018-11-23T16:13:18.443Z,101183.58
2018-11-23T16:15:47.358Z,101184.16
2018-11-23T16:18:16.275Z,101186.64
2018-11-23T16:20:46.182Z,101173.27
2018-11-23T16:23:16.528Z,101177.13
2018-11-23T16:25:46.121Z,101176.89
2018-11-23T16:28:15.081Z,101170.74
2018-11-23T16:30:45.554Z,101171.77
2018-11-23T16:33:16.189Z,101176.69
2018-11-23T16:35:45.141Z,101176.48
2018-11-23T16:38:15.740Z,101175.34
2018-11-23T16:40:46.565Z,101168.23
2018-11-23T16:43:15.862Z,101174.72
2018-11-23T16:45:45.325Z,101176.59
2018-11-23T16:48:14.983Z,101175.96
2018-11-23T16:50:44.472Z,101176.65
2018-11-23T16:53:13.363Z,101179.00
2018-11-23T16:55:42.292Z,101178.91
2018-11-23T16:58:12.384Z,101173.03
2018-11-23T17:00:42.568Z,101177.17
2018-11-23T17:03:13.308Z,101174.00
2018-11-23T17:05:43.883Z,101173.42
2018-11-23T17:08:12.809Z,101169.94
2018-11-23T17:10:41.759Z,101167.25
2018-11-23T17:13:10.733Z,101173.50
2018-11-23T17:15:52.651Z,101171.63
2018-11-23T17:18:25.515Z,101170.07
2018-11-23T17:20:59.266Z,101172.17
2018-11-23T17:23:29.784Z,101163.78
2018-11-23T17:26:01.613Z,101162.05
2018-11-23T17:28:36.114Z,101161.73
2018-11-23T17:31:10.038Z,101155.05
2018-11-23T17:33:42.526Z,101155.45
2018-11-23T17:36:13.142Z,101158.30
2018-11-23T17:38:47.667Z,101158.55
2018-11-23T17:41:16.687Z,101155.86
2018-11-23T17:43:49.297Z,101157.92
2018-11-23T17:46:19.660Z,101157.42
2018-11-23T17:48:51.227Z,101152.68
2018-11-23T17:51:21.252Z,101155.05
2018-11-23T17:53:52.096Z,101149.72
2018-11-23T17:56:26.924Z,101149.72
2018-11-23T17:58:59.578Z,101143.78
2018-11-23T18:01:29.965Z,101143.07
2018-11-23T18:04:00.340Z,101142.92
2018-11-23T18:06:35.992Z,101144.28
2018-11-23T18:09:09.576Z,101146.01
2018-11-23T18:11:40.344Z,101143.13
2018-11-23T18:14:11.908Z,101141.83
2018-11-23T18:16:44.295Z,101135.69
2018-11-23T18:19:16.741Z,101136.08
2018-11-23T18:21:51.815Z,101132.41
2018-11-23T18:24:21.822Z,101132.56
2018-11-23T18:26:53.888Z,101122.34
2018-11-23T18:29:26.926Z,101118.72
2018-11-23T18:31:58.988Z,101113.97
2018-11-23T18:34:28.927Z,101111.63
2018-11-23T18:36:59.140Z,101113.39
2018-11-23T18:39:28.809Z,101115.91
2018-11-23T18:42:00.613Z,101114.22
2018-11-23T18:44:33.627Z,101108.05
2018-11-23T18:47:03.769Z,101096.05
2018-11-23T18:49:36.395Z,101100.09
2018-11-23T18:52:06.569Z,101106.08
2018-11-23T18:54:38.589Z,101101.37
2018-11-23T18:57:06.759Z,101099.71
2018-11-23T18:59:36.514Z,101098.30
2018-11-23T19:02:11.366Z,101092.83
2018-11-23T19:04:41.729Z,101094.17
2018-11-23T19:07:13.667Z,101093.73
2018-11-23T19:09:46.769Z,101092.00
2018-11-23T19:12:16.481Z,101083.75
2018-11-23T19:14:48.721Z,101086.95
2018-11-23T19:17:18.770Z,101082.34
2018-11-23T19:19:51.583Z,101085.70
2018-11-23T19:22:24.821Z,101073.03
2018-11-23T19:24:54.216Z,101070.34
2018-11-23T19:27:23.777Z,101069.61
2018-11-23T19:29:56.596Z,101068.16
2018-11-23T19:32:29.435Z,101062.09
2018-11-23T19:35:02.113Z,101061.61
2018-11-23T19:37:31.653Z,101062.89
2018-11-23T19:40:01.669Z,101061.93
2018-11-23T19:42:36.877Z,101058.19
2018-11-23T19:45:18.533Z,101048.04
2018-11-23T19:47:48.059Z,101051.88
2018-11-23T19:50:18.614Z,101043.24
2018-11-23T19:52:48.509Z,101040.84
2018-11-23T19:55:18.648Z,101038.22
2018-11-23T19:57:50.208Z,101042.38
2018-11-23T20:00:26.224Z,101034.25
2018-11-23T20:02:56.233Z,101032.59
2018-11-23T20:05:25.791Z,101034.16
2018-11-23T20:08:00.361Z,101029.65
2018-11-23T20:10:30.025Z,101034.52
2018-11-23T20:13:02.030Z,101022.55
2018-11-23T20:15:37.240Z,101017.66
2018-11-23T20:18:07.567Z,101023.39
2018-11-23T20:20:39.960Z,101012.44
2018-11-23T20:23:09.558Z,101017.34
2018-11-23T20:25:39.315Z,101014.75
2018-11-23T20:28:11.612Z,101003.72
2018-11-23T20:30:42.547Z,100997.77
2018-11-23T20:33:13.331Z,101001.06
2018-11-23T20:35:48.150Z,100999.25
2018-11-23T20:38:20.653Z,101001.73
2018-11-23T20:40:48.336Z,100992.63
2018-11-23T20:43:18.637Z,100991.89
2018-11-23T20:45:50.351Z,100983.16
2018-11-23T20:48:19.827Z,100975.48
2018-11-23T20:50:58.792Z,100978.84
2018-11-23T20:53:34.291Z,100976.06
2018-11-23T20:56:03.866Z,100976.56
2018-11-23T20:58:33.439Z,100975.20
2018-11-23T21:01:06.098Z,100976.54
2018-11-23T21:03:36.101Z,100988.46
2018-11-23T21:06:08.845Z,100978.77
2018-11-23T21:08:38.446Z,100980.69
2018-11-23T21:11:08.223Z,100981.08
2018-11-23T21:13:40.220Z,100981.63
2018-11-23T21:16:15.640Z,100985.17
2018-11-23T21:18:51.123Z,100990.06
2018-11-23T21:21:23.038Z,100982.68
2018-11-23T21:23:52.633Z,100975.20
2018-11-23T21:26:21.988Z,100974.81
2018-11-23T21:28:52.128Z,100967.14
2018-11-23T21:31:23.329Z,100962.25
2018-11-23T21:33:52.897Z,100961.88
2018-11-23T21:36:22.700Z,100971.48
2018-11-23T21:38:55.339Z,100965.35
2018-11-23T21:41:29.670Z,100967.08
2018-11-23T21:43:58.089Z,100966.81
2018-11-23T21:46:30.595Z,100961.25
2018-11-23T21:49:00.183Z,100957.53
2018-11-23T21:51:33.369Z,100954.20
2018-11-23T21:54:05.984Z,100951.23
2018-11-23T21:56:35.810Z,100953.13
2018-11-23T21:59:05.728Z,100947.18
2018-11-23T22:01:35.408Z,100947.88
2018-11-23T22:04:06.506Z,100947.75
2018-11-23T22:06:33.343Z,100939.03
2018-11-23T22:09:02.329Z,100948.14
2018-11-23T22:11:31.277Z,100944.79
2018-11-23T22:14:00.229Z,100947.77
2018-11-23T22:16:29.212Z,100946.52
2018-11-23T22:18:58.142Z,100938.17
2018-11-23T22:21:27.048Z,100931.39
2018-11-23T22:24:01.375Z,100932.63
2018-11-23T22:26:24.887Z,100932.08
2018-11-23T22:28:53.815Z,100933.91
2018-11-23T22:31:22.767Z,100938.59
2018-11-23T22:33:52.539Z,100937.34
2018-11-23T22:36:21.534Z,100939.92
2018-11-23T22:38:50.400Z,100943.57
2018-11-23T22:41:19.388Z,100942.63
2018-11-23T22:43:48.310Z,100941.86
2018-11-23T22:46:17.262Z,100936.98
2018-11-23T22:48:46.167Z,100940.80
2018-11-23T22:51:15.040Z,100932.48
2018-11-23T22:53:44.172Z,100929.90
2018-11-23T22:56:13.078Z,100919.92
2018-11-23T22:58:41.992Z,100924.44
2018-11-23T23:01:10.952Z,100924.34
2018-11-23T23:03:39.868Z,100928.43
2018-11-23T23:06:08.823Z,100922.44
2018-11-23T23:08:37.835Z,100918.30
2018-11-23T23:11:06.826Z,100917.83
2018-11-23T23:13:35.770Z,100922.55
2018-11-23T23:16:04.890Z,100916.88
2018-11-23T23:18:33.872Z,100919.36
2018-11-23T23:21:02.833Z,100921.01
2018-11-23T23:23:31.728Z,100913.53
2018-11-23T23:26:00.654Z,100916.48
2018-11-23T23:28:29.542Z,100914.11
2018-11-23T23:30:58.520Z,100912.08
2018-11-23T23:36:05.358Z,100914.85
2018-11-23T23:38:34.254Z,100915.72
2018-11-23T23:41:03.168Z,100917.66
2018-11-23T23:43:32.088Z,100919.91
2018-11-23T23:46:01.016Z,100912.83
2018-11-23T23:48:29.922Z,100911.02
2018-11-23T23:50:58.874Z,100915.16
2018-11-23T23:53:27.803Z,100906.81
2018-11-23T23:55:56.764Z,100910.45
2018-11-23T23:58:25.745Z,100906.39
